Time;durP1;ratioP1;P1;durP2;ratioP2;P2;SDS_P1;SDS_P2;PMS_P1;PMS_P2;Temp;Humidity;BMP_temperature;BMP_pressure;BME280_temperature;BME280_humidity;BME280_pressure;Samples;Min_cycle;Max_cycle;Signal;HPM_P1;HPM_P2
2022/01/01 00:01:28;;;;;;;45.67;20.88;;;;;;;;;;2572827;53;21631;-76
2022/01/01 00:03:55;;;;;;;45.65;20.55;;;;;;;;;;2329180;57;21084;-76
2022/01/01 00:06:22;;;;;;;50.05;23.17;;;;;;;;;;2572630;53;21051;-76
2022/01/01 00:08:49;;;;;;;48.65;23.83;;;;;;;;;;2329221;57;21121;-76
2022/01/01 00:11:16;;;;;;;42.67;21.45;;;;;;;;;;2572369;53;21074;-76
2022/01/01 00:13:43;;;;;;;46.53;21.08;;;;;;;;;;2329540;57;21057;-76
2022/01/01 00:16:10;;;;;;;43.10;21.30;;;;;;;;;;2329528;57;21055;-76
2022/01/01 00:18:37;;;;;;;44.08;21.40;;;;;;;;;;2329653;57;21122;-76
2022/01/01 00:21:06;;;;;;;41.22;18.08;;;;;;;;;;2572588;53;21094;-77
2022/01/01 00:23:33;;;;;;;37.63;17.05;;;;;;;;;;2329786;57;21540;-77
2022/01/01 00:26:00;;;;;;;40.12;16.62;;;;;;;;;;2329739;57;21556;-77
2022/01/01 00:28:27;;;;;;;37.45;15.20;;;;;;;;;;2329709;57;21635;-77
2022/01/01 00:30:54;;;;;;;42.10;15.45;;;;;;;;;;2329382;57;21046;-77
2022/01/01 00:33:21;;;;;;;36.08;14.95;;;;;;;;;;2573299;53;21038;-77
2022/01/01 00:35:48;;;;;;;32.97;12.75;;;;;;;;;;2329496;57;21628;-77
2022/01/01 00:38:15;;;;;;;33.08;13.13;;;;;;;;;;2329360;57;21038;-77
2022/01/01 00:40:42;;;;;;;27.00;10.82;;;;;;;;;;2572579;53;21117;-77
2022/01/01 00:43:10;;;;;;;31.12;11.38;;;;;;;;;;2329497;57;21061;-77
2022/01/01 00:45:37;;;;;;;34.95;9.70;;;;;;;;;;2329954;57;21129;-77
2022/01/01 00:48:04;;;;;;;26.83;10.90;;;;;;;;;;2573025;54;21038;-77
2022/01/01 00:50:31;;;;;;;38.60;13.98;;;;;;;;;;2572573;53;21042;-78
2022/01/01 00:52:59;;;;;;;30.15;11.65;;;;;;;;;;2329917;57;21066;-77
2022/01/01 00:55:27;;;;;;;23.50;10.23;;;;;;;;;;2329583;57;21114;-77
2022/01/01 00:57:53;;;;;;;19.02;9.07;;;;;;;;;;2329262;57;21691;-77
2022/01/01 01:00:21;;;;;;;21.95;8.75;;;;;;;;;;2329211;57;21049;-77
2022/01/01 01:02:48;;;;;;;26.65;10.95;;;;;;;;;;2573108;54;21093;-77
2022/01/01 01:05:15;;;;;;;25.85;10.68;;;;;;;;;;2573261;53;21110;-78
2022/01/01 01:07:42;;;;;;;23.85;8.07;;;;;;;;;;2329741;57;21138;-77
2022/01/01 01:10:11;;;;;;;30.27;11.12;;;;;;;;;;2329279;57;21561;-77
2022/01/01 01:12:42;;;;;;;30.02;11.85;;;;;;;;;;2572939;53;21034;-77
2022/01/01 01:15:10;;;;;;;22.83;9.38;;;;;;;;;;2573509;53;21042;-78
2022/01/01 01:17:38;;;;;;;27.37;9.73;;;;;;;;;;2573059;54;21125;-77
2022/01/01 01:20:06;;;;;;;26.85;10.50;;;;;;;;;;2329644;57;21138;-77
2022/01/01 01:22:33;;;;;;;33.67;10.18;;;;;;;;;;2329966;57;21114;-77
2022/01/01 01:25:00;;;;;;;30.90;10.18;;;;;;;;;;2329674;57;21062;-77
2022/01/01 01:27:29;;;;;;;34.25;10.48;;;;;;;;;;2573119;53;21054;-77
2022/01/01 01:29:58;;;;;;;23.83;8.57;;;;;;;;;;2329280;57;21062;-77
2022/01/01 01:32:25;;;;;;;28.20;9.50;;;;;;;;;;2329583;57;21058;-77
2022/01/01 01:34:52;;;;;;;38.05;9.48;;;;;;;;;;2573016;54;21561;-77
2022/01/01 01:37:21;;;;;;;25.67;8.50;;;;;;;;;;2573351;54;21043;-77
2022/01/01 01:39:48;;;;;;;29.65;8.45;;;;;;;;;;2329109;57;21052;-77
2022/01/01 01:42:15;;;;;;;29.33;7.80;;;;;;;;;;2329816;57;21631;-77
2022/01/01 01:44:45;;;;;;;24.80;9.40;;;;;;;;;;2329992;57;21054;-77
2022/01/01 01:47:15;;;;;;;25.73;8.30;;;;;;;;;;2572368;54;21189;-77
2022/01/01 01:49:43;;;;;;;25.15;7.35;;;;;;;;;;2329223;57;21121;-77
2022/01/01 01:52:10;;;;;;;19.33;7.15;;;;;;;;;;2329581;57;21186;-77
2022/01/01 01:54:37;;;;;;;28.80;7.37;;;;;;;;;;2329448;57;21539;-77
2022/01/01 01:57:05;;;;;;;28.05;7.43;;;;;;;;;;2329775;57;21105;-77
2022/01/01 01:59:32;;;;;;;24.48;7.50;;;;;;;;;;2572369;53;21532;-77
2022/01/01 02:01:59;;;;;;;20.42;6.87;;;;;;;;;;2329671;57;21099;-77
2022/01/01 02:04:26;;;;;;;27.77;8.95;;;;;;;;;;2573035;54;21623;-77
2022/01/01 02:06:53;;;;;;;22.90;7.55;;;;;;;;;;2329222;57;21062;-77
2022/01/01 02:09:20;;;;;;;29.90;9.30;;;;;;;;;;2572314;53;21528;-77
2022/01/01 02:11:47;;;;;;;26.55;7.82;;;;;;;;;;2329718;57;21050;-77
2022/01/01 02:14:21;;;;;;;24.48;7.70;;;;;;;;;;2572886;54;21141;-77
2022/01/01 02:17:08;;;;;;;23.52;7.72;;;;;;;;;;2572833;54;21053;-77
2022/01/01 02:19:46;;;;;;;19.95;6.82;;;;;;;;;;2328920;57;21059;-77
2022/01/01 02:22:13;;;;;;;25.90;7.70;;;;;;;;;;2572861;54;21611;-77
2022/01/01 02:24:40;;;;;;;27.45;7.72;;;;;;;;;;2329381;57;21499;-77
2022/01/01 02:27:08;;;;;;;23.65;9.70;;;;;;;;;;2329535;57;21642;-77
2022/01/01 02:29:37;;;;;;;23.27;7.53;;;;;;;;;;2572560;53;21145;-77
2022/01/01 02:32:08;;;;;;;28.67;8.10;;;;;;;;;;2572511;54;21122;-77
2022/01/01 02:34:35;;;;;;;27.75;7.65;;;;;;;;;;2329526;57;21529;-77
2022/01/01 02:37:03;;;;;;;20.08;7.25;;;;;;;;;;2328991;57;21292;-77
2022/01/01 02:39:30;;;;;;;27.85;8.77;;;;;;;;;;2572644;53;22001;-77
2022/01/01 02:41:57;;;;;;;29.60;9.73;;;;;;;;;;2329422;57;21129;-77
2022/01/01 02:44:25;;;;;;;24.33;8.65;;;;;;;;;;2572225;54;21118;-77
2022/01/01 02:46:53;;;;;;;24.45;8.25;;;;;;;;;;2329456;57;22138;-77
2022/01/01 02:49:20;;;;;;;22.35;10.05;;;;;;;;;;2572174;53;21101;-77
2022/01/01 02:51:47;;;;;;;20.52;8.35;;;;;;;;;;2572854;53;21549;-77
2022/01/01 02:54:14;;;;;;;36.45;11.57;;;;;;;;;;2329341;57;21191;-77
2022/01/01 02:56:41;;;;;;;26.05;10.20;;;;;;;;;;2573065;53;21133;-77
2022/01/01 02:59:08;;;;;;;26.27;9.93;;;;;;;;;;2328841;57;21063;-77
2022/01/01 03:01:35;;;;;;;25.00;10.40;;;;;;;;;;2329423;57;21102;-77
2022/01/01 03:04:02;;;;;;;32.50;10.15;;;;;;;;;;2328907;57;21663;-77
2022/01/01 03:06:29;;;;;;;25.12;10.38;;;;;;;;;;2572743;53;21050;-77
2022/01/01 03:08:56;;;;;;;21.10;8.65;;;;;;;;;;2328385;57;21054;-77
2022/01/01 03:11:24;;;;;;;24.02;10.23;;;;;;;;;;2329538;57;21050;-77
2022/01/01 03:13:51;;;;;;;30.50;10.48;;;;;;;;;;2329594;57;21086;-77
2022/01/01 03:16:18;;;;;;;22.98;10.20;;;;;;;;;;2573079;53;21094;-77
2022/01/01 03:18:45;;;;;;;27.10;10.40;;;;;;;;;;2329219;57;21058;-77
2022/01/01 03:21:12;;;;;;;33.13;10.95;;;;;;;;;;2329573;57;21674;-77
2022/01/01 03:23:39;;;;;;;28.80;11.12;;;;;;;;;;2329448;57;21540;-77
2022/01/01 03:26:06;;;;;;;19.12;9.25;;;;;;;;;;2573026;53;21097;-77
2022/01/01 03:28:33;;;;;;;29.12;10.15;;;;;;;;;;2329309;57;21049;-77
2022/01/01 03:31:00;;;;;;;36.08;11.82;;;;;;;;;;2572555;53;21026;-76
2022/01/01 03:33:27;;;;;;;29.98;12.27;;;;;;;;;;2573099;53;21118;-76
2022/01/01 03:35:54;;;;;;;30.60;11.77;;;;;;;;;;2329448;57;21110;-77
2022/01/01 03:38:21;;;;;;;32.40;12.52;;;;;;;;;;2573136;53;21039;-77
2022/01/01 03:40:48;;;;;;;27.85;10.82;;;;;;;;;;2328911;57;21129;-76
2022/01/01 03:43:15;;;;;;;30.23;11.45;;;;;;;;;;2573206;53;21058;-76
2022/01/01 03:45:42;;;;;;;35.78;12.32;;;;;;;;;;2572702;53;21129;-76
2022/01/01 03:48:09;;;;;;;36.03;12.05;;;;;;;;;;2329718;57;21557;-76
2022/01/01 03:50:36;;;;;;;27.10;11.93;;;;;;;;;;2328940;57;21050;-76
2022/01/01 03:53:03;;;;;;;35.28;12.93;;;;;;;;;;2573323;53;21091;-77
2022/01/01 03:55:30;;;;;;;33.42;11.75;;;;;;;;;;2329743;57;21114;-76
2022/01/01 03:57:57;;;;;;;39.42;13.27;;;;;;;;;;2329666;57;21054;-77
2022/01/01 04:00:24;;;;;;;39.05;12.80;;;;;;;;;;2328626;57;21038;-76
2022/01/01 04:02:51;;;;;;;30.25;12.77;;;;;;;;;;2329546;57;21078;-77
2022/01/01 04:05:18;;;;;;;36.58;13.40;;;;;;;;;;2329751;57;21039;-76
2022/01/01 04:07:45;;;;;;;30.65;11.60;;;;;;;;;;2329854;57;21129;-76
2022/01/01 04:10:13;;;;;;;34.38;13.18;;;;;;;;;;2329296;57;21066;-77
2022/01/01 04:12:40;;;;;;;39.15;13.65;;;;;;;;;;2329747;57;21082;-76
2022/01/01 04:15:08;;;;;;;25.48;11.20;;;;;;;;;;2573018;53;21062;-76
2022/01/01 04:17:37;;;;;;;38.50;13.23;;;;;;;;;;2573212;53;21030;-76
2022/01/01 04:20:06;;;;;;;32.83;12.90;;;;;;;;;;2329133;57;21058;-77
2022/01/01 04:22:33;;;;;;;35.80;13.75;;;;;;;;;;2573113;53;21113;-76
2022/01/01 04:25:00;;;;;;;33.38;12.32;;;;;;;;;;2328963;57;21185;-76
2022/01/01 04:27:27;;;;;;;25.88;11.15;;;;;;;;;;2329493;57;21049;-77
2022/01/01 04:29:54;;;;;;;29.70;12.05;;;;;;;;;;2572692;53;21102;-77
2022/01/01 04:32:22;;;;;;;44.13;12.98;;;;;;;;;;2573248;53;21109;-76
2022/01/01 04:34:49;;;;;;;32.13;12.45;;;;;;;;;;2573184;53;21030;-76
2022/01/01 04:37:17;;;;;;;37.65;13.32;;;;;;;;;;2329829;57;21062;-77
2022/01/01 04:39:44;;;;;;;34.25;12.10;;;;;;;;;;2329411;57;21125;-76
2022/01/01 04:42:11;;;;;;;33.85;13.02;;;;;;;;;;2329358;57;21086;-76
2022/01/01 04:44:38;;;;;;;29.27;12.82;;;;;;;;;;2329872;57;21050;-77
2022/01/01 04:47:06;;;;;;;46.58;14.85;;;;;;;;;;2330085;57;21166;-76
2022/01/01 04:49:33;;;;;;;34.85;14.55;;;;;;;;;;2329311;57;21573;-76
2022/01/01 04:52:00;;;;;;;24.17;10.45;;;;;;;;;;2329899;57;21034;-77
2022/01/01 04:54:27;;;;;;;31.87;13.82;;;;;;;;;;2328893;57;21073;-77
2022/01/01 04:56:54;;;;;;;37.95;14.60;;;;;;;;;;2572972;53;21671;-77
2022/01/01 04:59:21;;;;;;;31.37;13.77;;;;;;;;;;2572819;53;21050;-77
2022/01/01 05:01:48;;;;;;;28.90;13.15;;;;;;;;;;2329645;57;21086;-77
2022/01/01 05:04:15;;;;;;;36.80;14.75;;;;;;;;;;2329850;57;21050;-76
2022/01/01 05:06:42;;;;;;;38.28;14.65;;;;;;;;;;2573293;53;21133;-77
2022/01/01 05:09:09;;;;;;;51.47;15.98;;;;;;;;;;2572442;53;21066;-77
2022/01/01 05:11:36;;;;;;;35.05;15.02;;;;;;;;;;2572973;53;21113;-77
2022/01/01 05:14:03;;;;;;;39.15;14.90;;;;;;;;;;2329840;57;21225;-76
2022/01/01 05:16:30;;;;;;;41.55;14.85;;;;;;;;;;2573410;53;21047;-77
2022/01/01 05:18:58;;;;;;;35.78;13.93;;;;;;;;;;2329100;57;21046;-76
2022/01/01 05:21:27;;;;;;;40.25;14.90;;;;;;;;;;2329586;57;21034;-76
2022/01/01 05:23:54;;;;;;;33.63;15.90;;;;;;;;;;2329929;57;21113;-77
2022/01/01 05:26:21;;;;;;;37.20;13.95;;;;;;;;;;2573248;53;21058;-77
2022/01/01 05:28:49;;;;;;;43.05;16.33;;;;;;;;;;2572633;53;21101;-76
2022/01/01 05:31:16;;;;;;;44.13;16.62;;;;;;;;;;2436863;52;21201;-78
2022/01/01 05:33:56;;;;;;;48.53;15.43;;;;;;;;;;2346428;57;21053;-78
2022/01/01 05:36:23;;;;;;;50.17;15.80;;;;;;;;;;2345359;57;21096;-78
2022/01/01 05:38:50;;;;;;;33.55;14.52;;;;;;;;;;2592461;52;21045;-78
2022/01/01 05:41:17;;;;;;;53.10;16.80;;;;;;;;;;2345106;57;21034;-78
2022/01/01 05:43:44;;;;;;;40.50;16.40;;;;;;;;;;2345098;57;21053;-78
2022/01/01 05:46:11;;;;;;;44.85;16.37;;;;;;;;;;2344998;57;21058;-78
2022/01/01 05:48:38;;;;;;;42.28;16.85;;;;;;;;;;2344867;57;21038;-78
2022/01/01 05:51:06;;;;;;;37.15;14.57;;;;;;;;;;2344624;57;21102;-79
2022/01/01 05:53:33;;;;;;;45.20;16.87;;;;;;;;;;2344892;57;21110;-78
2022/01/01 05:56:00;;;;;;;38.42;15.73;;;;;;;;;;2591288;53;21119;-78
2022/01/01 05:58:27;;;;;;;38.50;15.57;;;;;;;;;;2344767;57;21063;-78
2022/01/01 06:00:54;;;;;;;43.17;16.95;;;;;;;;;;2344675;57;21054;-79
2022/01/01 06:03:21;;;;;;;51.03;19.10;;;;;;;;;;2344681;57;21059;-79
2022/01/01 06:05:51;;;;;;;37.70;16.02;;;;;;;;;;2344663;57;21097;-78
2022/01/01 06:08:19;;;;;;;41.30;18.23;;;;;;;;;;2345185;57;21038;-78
2022/01/01 06:10:46;;;;;;;36.50;15.05;;;;;;;;;;2344209;57;21094;-77
2022/01/01 06:13:13;;;;;;;41.20;17.60;;;;;;;;;;2344674;57;21396;-78
2022/01/01 06:15:42;;;;;;;47.72;17.52;;;;;;;;;;2344908;57;21113;-78
2022/01/01 06:18:09;;;;;;;49.03;18.80;;;;;;;;;;2343934;57;21193;-78
2022/01/01 06:20:36;;;;;;;43.80;17.00;;;;;;;;;;2590942;53;21057;-78
2022/01/01 06:23:03;;;;;;;55.00;19.77;;;;;;;;;;2590831;53;21022;-78
2022/01/01 06:25:31;;;;;;;44.15;16.92;;;;;;;;;;2344023;57;21552;-79
2022/01/01 06:27:58;;;;;;;47.40;17.25;;;;;;;;;;2344494;57;21054;-77
2022/01/01 06:30:25;;;;;;;36.83;15.85;;;;;;;;;;2343788;57;21098;-79
2022/01/01 06:32:52;;;;;;;39.33;17.52;;;;;;;;;;2344575;57;21057;-78
2022/01/01 06:35:19;;;;;;;49.55;19.00;;;;;;;;;;2344276;57;21049;-78
2022/01/01 06:37:46;;;;;;;37.33;15.52;;;;;;;;;;2344039;57;21038;-77
2022/01/01 06:40:13;;;;;;;41.42;16.10;;;;;;;;;;2590054;52;21030;-78
2022/01/01 06:42:40;;;;;;;45.05;18.65;;;;;;;;;;2344088;57;21161;-78
2022/01/01 06:45:08;;;;;;;46.47;18.27;;;;;;;;;;2343661;57;21062;-77
2022/01/01 06:47:35;;;;;;;40.35;15.05;;;;;;;;;;2344108;57;21174;-77
2022/01/01 06:50:02;;;;;;;48.95;17.98;;;;;;;;;;2343918;57;21065;-78
2022/01/01 06:52:29;;;;;;;48.63;18.50;;;;;;;;;;2343984;57;21558;-77
2022/01/01 06:54:56;;;;;;;46.92;17.23;;;;;;;;;;2344325;57;21069;-78
2022/01/01 06:57:23;;;;;;;39.15;16.05;;;;;;;;;;2344076;57;21125;-78
2022/01/01 06:59:50;;;;;;;38.95;15.95;;;;;;;;;;2343120;57;21885;-77
2022/01/01 07:02:17;;;;;;;46.17;16.52;;;;;;;;;;2343963;57;21109;-77
2022/01/01 07:04:44;;;;;;;50.38;17.33;;;;;;;;;;2343584;57;21572;-78
2022/01/01 07:07:11;;;;;;;40.30;16.83;;;;;;;;;;2343273;57;21053;-78
2022/01/01 07:09:38;;;;;;;45.33;17.98;;;;;;;;;;2341803;57;21069;-78
2022/01/01 07:12:06;;;;;;;43.60;17.15;;;;;;;;;;2344210;57;21063;-77
2022/01/01 07:14:33;;;;;;;49.80;18.17;;;;;;;;;;2344828;57;21069;-78
2022/01/01 07:17:00;;;;;;;40.15;15.23;;;;;;;;;;2345058;57;21583;-79
2022/01/01 07:19:27;;;;;;;50.75;18.58;;;;;;;;;;2344433;57;21126;-78
2022/01/01 07:21:56;;;;;;;51.15;17.80;;;;;;;;;;2591954;53;21046;-79
2022/01/01 07:24:23;;;;;;;48.70;17.67;;;;;;;;;;2345097;57;21045;-79
2022/01/01 07:26:50;;;;;;;41.88;17.05;;;;;;;;;;2345025;57;21058;-79
2022/01/01 07:29:17;;;;;;;54.67;18.85;;;;;;;;;;2344816;57;21049;-79
2022/01/01 07:31:44;;;;;;;37.05;14.50;;;;;;;;;;2591626;53;21137;-79
2022/01/01 07:34:11;;;;;;;44.30;15.57;;;;;;;;;;2344855;57;21018;-79
2022/01/01 07:36:38;;;;;;;39.35;15.57;;;;;;;;;;2345519;57;21070;-79
2022/01/01 07:39:05;;;;;;;48.08;17.05;;;;;;;;;;2344366;57;21633;-79
2022/01/01 07:41:32;;;;;;;41.13;16.25;;;;;;;;;;2345453;57;21037;-80
2022/01/01 07:43:59;;;;;;;43.78;16.00;;;;;;;;;;2344942;57;21058;-79
2022/01/01 07:46:26;;;;;;;48.47;15.77;;;;;;;;;;2592585;53;21097;-79
2022/01/01 07:48:53;;;;;;;43.17;14.93;;;;;;;;;;2344801;57;21113;-79
2022/01/01 07:51:20;;;;;;;46.05;17.48;;;;;;;;;;2345241;57;21058;-77
2022/01/01 07:53:47;;;;;;;50.15;16.33;;;;;;;;;;2341886;57;21615;-78
2022/01/01 07:56:14;;;;;;;52.55;19.85;;;;;;;;;;2343930;57;21105;-77
2022/01/01 07:58:41;;;;;;;47.88;16.33;;;;;;;;;;2343619;57;21616;-78
2022/01/01 08:01:08;;;;;;;49.17;16.75;;;;;;;;;;2343315;57;21094;-77
2022/01/01 08:03:35;;;;;;;52.92;18.25;;;;;;;;;;2343165;57;21045;-77
2022/01/01 08:06:02;;;;;;;52.70;17.60;;;;;;;;;;2343740;57;21133;-77
2022/01/01 08:08:29;;;;;;;42.28;17.30;;;;;;;;;;2343138;57;21041;-77
2022/01/01 08:10:58;;;;;;;39.25;14.65;;;;;;;;;;2343308;57;21157;-77
2022/01/01 08:13:25;;;;;;;48.63;15.05;;;;;;;;;;2343288;57;21141;-77
2022/01/01 08:15:55;;;;;;;40.08;16.23;;;;;;;;;;2343658;57;21584;-78
2022/01/01 08:18:22;;;;;;;38.17;14.77;;;;;;;;;;2343896;57;21050;-78
2022/01/01 08:20:49;;;;;;;50.70;16.37;;;;;;;;;;2590179;53;21061;-78
2022/01/01 08:23:16;;;;;;;44.72;15.75;;;;;;;;;;2344440;57;21078;-79
2022/01/01 08:25:43;;;;;;;42.85;16.33;;;;;;;;;;2344857;57;21041;-77
2022/01/01 08:28:10;;;;;;;43.17;16.35;;;;;;;;;;2344727;57;21045;-78
2022/01/01 08:30:38;;;;;;;42.53;15.63;;;;;;;;;;2344555;57;21066;-77
2022/01/01 08:33:04;;;;;;;37.60;15.18;;;;;;;;;;2343711;57;21050;-76
2022/01/01 08:35:32;;;;;;;44.13;16.27;;;;;;;;;;2343703;57;22093;-78
2022/01/01 08:38:00;;;;;;;41.03;15.80;;;;;;;;;;2343672;57;21529;-77
2022/01/01 08:40:27;;;;;;;45.00;15.80;;;;;;;;;;2343369;56;21058;-77
2022/01/01 08:42:55;;;;;;;47.78;17.00;;;;;;;;;;2344307;57;21573;-78
2022/01/01 08:45:22;;;;;;;57.88;18.33;;;;;;;;;;2343390;57;21125;-78
2022/01/01 08:47:49;;;;;;;62.60;19.20;;;;;;;;;;2343949;57;21101;-78
2022/01/01 08:50:16;;;;;;;38.97;16.40;;;;;;;;;;2343625;57;21070;-78
2022/01/01 08:52:43;;;;;;;45.47;18.27;;;;;;;;;;2344264;57;21651;-78
2022/01/01 08:55:10;;;;;;;48.67;17.98;;;;;;;;;;2344789;57;21046;-79
2022/01/01 08:57:37;;;;;;;49.75;18.45;;;;;;;;;;2345291;57;21896;-78
2022/01/01 09:00:06;;;;;;;44.63;15.85;;;;;;;;;;2344815;57;21047;-79
2022/01/01 09:02:34;;;;;;;52.47;17.52;;;;;;;;;;2344150;57;21092;-79
2022/01/01 09:05:01;;;;;;;59.67;16.95;;;;;;;;;;2345374;57;21054;-79
2022/01/01 09:07:29;;;;;;;45.67;19.40;;;;;;;;;;2345000;57;21130;-80
2022/01/01 09:09:56;;;;;;;49.65;19.10;;;;;;;;;;2344784;57;21125;-79
2022/01/01 09:12:23;;;;;;;61.40;19.48;;;;;;;;;;2345418;57;21057;-80
2022/01/01 09:14:50;;;;;;;44.67;17.27;;;;;;;;;;2345041;57;21061;-79
2022/01/01 09:17:17;;;;;;;43.53;16.58;;;;;;;;;;2345018;57;21061;-80
2022/01/01 09:19:44;;;;;;;52.05;18.73;;;;;;;;;;2344394;57;21126;-80
2022/01/01 09:22:11;;;;;;;55.08;17.50;;;;;;;;;;2592028;53;21050;-79
2022/01/01 09:24:38;;;;;;;46.15;17.85;;;;;;;;;;2344556;57;21128;-78
2022/01/01 09:27:06;;;;;;;46.45;18.67;;;;;;;;;;2344106;57;21058;-79
2022/01/01 09:29:33;;;;;;;46.83;19.08;;;;;;;;;;2344126;57;21205;-78
2022/01/01 09:32:00;;;;;;;44.10;17.85;;;;;;;;;;2343804;57;21109;-78
2022/01/01 09:34:27;;;;;;;52.42;19.30;;;;;;;;;;2344187;57;21054;-79
2022/01/01 09:36:54;;;;;;;47.95;17.27;;;;;;;;;;2345094;57;21122;-79
2022/01/01 09:39:21;;;;;;;52.97;18.85;;;;;;;;;;2343729;57;21030;-78
2022/01/01 09:41:48;;;;;;;49.92;19.87;;;;;;;;;;2590603;53;21133;-78
2022/01/01 09:44:17;;;;;;;45.95;18.25;;;;;;;;;;2343623;57;21034;-79
2022/01/01 09:46:47;;;;;;;45.60;18.87;;;;;;;;;;2590263;53;21041;-77
2022/01/01 09:52:17;;;;;;;50.55;17.62;;;;;;;;;;2565888;53;21448;-78
2022/01/01 09:54:44;;;;;;;45.38;18.08;;;;;;;;;;2343706;57;21141;-78
2022/01/01 09:57:11;;;;;;;28.92;14.13;;;;;;;;;;2344458;57;21066;-78
2022/01/01 09:59:39;;;;;;;52.58;21.08;;;;;;;;;;2344031;57;21125;-78
2022/01/01 10:02:06;;;;;;;50.40;18.67;;;;;;;;;;2343629;57;21042;-82
2022/01/01 10:04:41;;;;;;;53.05;19.33;;;;;;;;;;2589296;53;21145;-79
2022/01/01 10:07:08;;;;;;;50.20;19.52;;;;;;;;;;2343538;57;21054;-79
2022/01/01 10:09:37;;;;;;;55.63;23.33;;;;;;;;;;2342984;57;21129;-79
2022/01/01 10:12:06;;;;;;;57.28;21.62;;;;;;;;;;2343926;57;21049;-79
2022/01/01 10:14:37;;;;;;;60.72;21.95;;;;;;;;;;2344002;57;21081;-79
2022/01/01 10:17:13;;;;;;;61.20;23.33;;;;;;;;;;2343508;57;21666;-79
2022/01/01 10:19:40;;;;;;;56.05;21.15;;;;;;;;;;2343193;57;21097;-79
2022/01/01 10:22:12;;;;;;;56.35;22.77;;;;;;;;;;2344271;57;21113;-79
2022/01/01 10:30:23;;;;;;;56.33;22.65;;;;;;;;;;2326944;57;21125;-80
2022/01/01 10:33:08;;;;;;;71.43;24.75;;;;;;;;;;2345129;57;21521;-80
2022/01/01 10:35:36;;;;;;;71.60;27.02;;;;;;;;;;2345176;57;21054;-81
2022/01/01 10:38:05;;;;;;;61.90;25.23;;;;;;;;;;2345102;57;21596;-79
2022/01/01 10:40:32;;;;;;;78.10;29.67;;;;;;;;;;2344423;57;21169;-78
2022/01/01 10:42:59;;;;;;;73.60;29.75;;;;;;;;;;2591218;53;21587;-79
2022/01/01 10:45:33;;;;;;;77.47;29.15;;;;;;;;;;2344035;57;21078;-78
2022/01/01 10:48:15;;;;;;;95.68;32.50;;;;;;;;;;2343805;57;21578;-81
2022/01/01 10:50:42;;;;;;;101.82;37.17;;;;;;;;;;2342980;57;21568;-81
2022/01/01 10:53:13;;;;;;;94.07;36.08;;;;;;;;;;2590503;53;21061;-78
2022/01/01 10:55:47;;;;;;;92.03;33.72;;;;;;;;;;2344139;57;21125;-80
2022/01/01 10:58:18;;;;;;;79.10;31.00;;;;;;;;;;2590690;53;21050;-78
2022/01/01 11:00:45;;;;;;;96.28;37.67;;;;;;;;;;2343722;57;21129;-81
2022/01/01 11:03:16;;;;;;;107.15;41.17;;;;;;;;;;2592367;53;21623;-82
2022/01/01 11:05:44;;;;;;;94.45;36.35;;;;;;;;;;2344726;57;21114;-77
2022/01/01 11:08:11;;;;;;;85.43;34.08;;;;;;;;;;2344440;57;21113;-84
2022/01/01 11:10:39;;;;;;;107.60;41.63;;;;;;;;;;2590684;52;21541;-77
2022/01/01 11:13:07;;;;;;;89.87;35.97;;;;;;;;;;2343953;57;21026;-79
2022/01/01 11:15:34;;;;;;;99.70;38.83;;;;;;;;;;2590573;53;21125;-77
2022/01/01 11:18:02;;;;;;;105.40;42.25;;;;;;;;;;2344542;57;21089;-78
2022/01/01 11:20:33;;;;;;;95.50;40.15;;;;;;;;;;2590915;52;21045;-78
2022/01/01 11:23:02;;;;;;;98.00;40.38;;;;;;;;;;2344585;57;21047;-80
2022/01/01 11:25:29;;;;;;;93.90;39.10;;;;;;;;;;2591533;53;21050;-79
2022/01/01 11:27:56;;;;;;;97.62;38.33;;;;;;;;;;2590996;53;21197;-78
2022/01/01 11:30:26;;;;;;;88.35;37.83;;;;;;;;;;2344333;57;21156;-81
2022/01/01 11:32:54;;;;;;;94.75;37.33;;;;;;;;;;2531763;52;67769;-79
2022/01/01 11:35:27;;;;;;;87.15;38.55;;;;;;;;;;2580295;53;21082;-78
2022/01/01 11:37:57;;;;;;;73.35;33.25;;;;;;;;;;2581718;53;21041;-78
2022/01/01 11:40:24;;;;;;;88.05;37.22;;;;;;;;;;2581471;53;21053;-78
2022/01/01 11:42:51;;;;;;;83.12;34.92;;;;;;;;;;2334220;57;21558;-78
2022/01/01 11:45:40;;;;;;;80.82;36.00;;;;;;;;;;2333236;57;21789;-78
2022/01/01 11:48:42;;;;;;;79.87;34.58;;;;;;;;;;2576370;53;21133;-78
2022/01/01 11:54:09;;;;;;;78.07;39.43;;;;;;;;;;2581965;53;27855;-75
2022/01/01 11:56:56;;;;;;;78.43;33.97;;;;;;;;;;2347389;57;21046;-76
2022/01/01 11:59:23;;;;;;;72.35;31.73;;;;;;;;;;2346372;57;21121;-78
2022/01/01 12:01:51;;;;;;;77.05;32.67;;;;;;;;;;2590453;53;21110;-74
2022/01/01 12:04:23;;;;;;;69.62;30.67;;;;;;;;;;2345198;57;21122;-78
2022/01/01 12:06:53;;;;;;;74.32;33.30;;;;;;;;;;2344797;57;21041;-77
2022/01/01 12:09:20;;;;;;;78.05;33.05;;;;;;;;;;2345589;57;21038;-77
2022/01/01 12:11:54;;;;;;;69.25;29.87;;;;;;;;;;2346141;57;21046;-77
2022/01/01 12:14:23;;;;;;;67.47;28.45;;;;;;;;;;2345936;57;21050;-78
2022/01/01 12:16:51;;;;;;;59.47;26.35;;;;;;;;;;2344300;57;21117;-80
2022/01/01 12:19:22;;;;;;;60.97;28.85;;;;;;;;;;2590860;53;21560;-77
2022/01/01 12:22:00;;;;;;;66.62;29.45;;;;;;;;;;2345894;57;21117;-77
2022/01/01 12:24:27;;;;;;;55.83;25.52;;;;;;;;;;2345067;57;21659;-76
2022/01/01 12:26:55;;;;;;;65.22;27.17;;;;;;;;;;2345189;57;21058;-78
2022/01/01 12:29:25;;;;;;;57.40;24.83;;;;;;;;;;2592117;53;21567;-80
2022/01/01 12:31:58;;;;;;;45.20;20.65;;;;;;;;;;2589051;53;21113;-79
2022/01/01 12:34:27;;;;;;;53.95;22.00;;;;;;;;;;2344000;57;21030;-78
2022/01/01 12:36:55;;;;;;;48.00;21.87;;;;;;;;;;2344196;57;21193;-77
2022/01/01 12:39:22;;;;;;;48.50;21.58;;;;;;;;;;2345522;57;21030;-77
2022/01/01 12:41:50;;;;;;;57.08;21.37;;;;;;;;;;2345907;57;21125;-76
2022/01/01 12:44:18;;;;;;;55.97;22.23;;;;;;;;;;2346129;57;21038;-78
2022/01/01 12:46:46;;;;;;;48.95;19.23;;;;;;;;;;2346923;57;21050;-81
2022/01/01 12:49:13;;;;;;;46.45;22.48;;;;;;;;;;2348106;57;21038;-81
2022/01/01 12:51:40;;;;;;;46.55;19.25;;;;;;;;;;2347288;57;21075;-77
2022/01/01 12:54:08;;;;;;;56.90;20.50;;;;;;;;;;2592885;53;21046;-78
2022/01/01 12:56:36;;;;;;;43.38;19.35;;;;;;;;;;2593013;53;21651;-78
2022/01/01 12:59:06;;;;;;;46.88;19.30;;;;;;;;;;2345105;57;21721;-77
2022/01/01 13:01:34;;;;;;;43.92;20.02;;;;;;;;;;2346105;57;21447;-78
2022/01/01 13:04:02;;;;;;;50.08;22.08;;;;;;;;;;2592664;53;21057;-79
2022/01/01 13:06:30;;;;;;;39.85;17.80;;;;;;;;;;2344596;57;21592;-77
2022/01/01 13:08:59;;;;;;;46.47;20.17;;;;;;;;;;2344030;57;21560;-78
2022/01/01 13:11:26;;;;;;;51.30;21.00;;;;;;;;;;2591791;53;21026;-77
2022/01/01 13:13:53;;;;;;;44.00;21.45;;;;;;;;;;2344822;57;21065;-76
2022/01/01 13:16:20;;;;;;;48.38;20.90;;;;;;;;;;2344834;57;21532;-76
2022/01/01 13:18:47;;;;;;;54.90;22.27;;;;;;;;;;2344484;57;21026;-76
2022/01/01 13:21:14;;;;;;;46.88;21.45;;;;;;;;;;2345309;57;21060;-76
2022/01/01 13:23:41;;;;;;;51.90;21.02;;;;;;;;;;2344411;57;21582;-77
2022/01/01 13:26:08;;;;;;;53.70;24.05;;;;;;;;;;2345272;57;21046;-77
2022/01/01 13:28:36;;;;;;;47.22;23.20;;;;;;;;;;2344789;57;22179;-77
2022/01/01 13:31:04;;;;;;;53.47;24.08;;;;;;;;;;2344924;57;21014;-76
2022/01/01 13:33:32;;;;;;;56.92;24.58;;;;;;;;;;2344363;57;21533;-77
2022/01/01 13:36:00;;;;;;;62.35;26.30;;;;;;;;;;2344783;57;21110;-77
2022/01/01 13:38:28;;;;;;;58.40;25.60;;;;;;;;;;2345180;57;21046;-77
2022/01/01 13:40:57;;;;;;;54.90;24.73;;;;;;;;;;2344942;57;21026;-77
2022/01/01 13:43:27;;;;;;;53.67;24.87;;;;;;;;;;2591404;53;21094;-77
2022/01/01 13:46:05;;;;;;;61.47;27.45;;;;;;;;;;2344717;57;21648;-76
2022/01/01 13:48:40;;;;;;;59.08;25.80;;;;;;;;;;2344997;57;21033;-77
2022/01/01 13:51:07;;;;;;;56.50;26.05;;;;;;;;;;2344489;57;21034;-78
2022/01/01 13:53:34;;;;;;;69.97;28.87;;;;;;;;;;2344802;57;21573;-76
2022/01/01 13:56:03;;;;;;;71.55;29.85;;;;;;;;;;2345236;57;21312;-78
2022/01/01 13:58:31;;;;;;;65.32;28.15;;;;;;;;;;2344131;57;21030;-76
2022/01/01 14:00:58;;;;;;;61.03;28.30;;;;;;;;;;2344381;57;21054;-78
2022/01/01 14:03:26;;;;;;;69.03;29.75;;;;;;;;;;2345101;57;21581;-81
2022/01/01 14:05:54;;;;;;;65.97;29.98;;;;;;;;;;2345940;57;21069;-80
2022/01/01 14:08:22;;;;;;;68.03;29.63;;;;;;;;;;2344702;57;21528;-78
2022/01/01 14:10:56;;;;;;;72.97;30.45;;;;;;;;;;2344908;57;21137;-78
2022/01/01 14:13:30;;;;;;;66.45;31.35;;;;;;;;;;2591689;53;21532;-79
2022/01/01 14:15:57;;;;;;;61.78;30.83;;;;;;;;;;2590682;53;21045;-79
2022/01/01 14:18:28;;;;;;;73.50;31.80;;;;;;;;;;2344906;57;21026;-77
2022/01/01 14:20:55;;;;;;;67.40;29.83;;;;;;;;;;2344280;57;21085;-77
2022/01/01 14:23:24;;;;;;;63.22;28.52;;;;;;;;;;2345205;57;21034;-77
2022/01/01 14:25:55;;;;;;;70.37;29.83;;;;;;;;;;2345009;57;21054;-79
2022/01/01 14:28:22;;;;;;;61.72;29.77;;;;;;;;;;2345753;57;21077;-80
2022/01/01 14:30:51;;;;;;;63.15;28.65;;;;;;;;;;2346530;57;21050;-76
2022/01/01 14:33:18;;;;;;;66.28;28.42;;;;;;;;;;2344628;57;21131;-76
2022/01/01 14:35:45;;;;;;;69.50;30.15;;;;;;;;;;2344868;57;21058;-78